Pagina principale
METAR-TAF:

METAR-TAF

Aeroporti :

Capri, Italia

latitudine: 40-33N, longitudine: 014-12E, altezza: 160 m

Osservazione

Il bollettino è stato emesso 11 ore e 0 minuti fa, alle 22:55 UTC
Vento calmo
Temperature 12°C
Umidità 76%
Pressione 1014 hPa
Visibilità 10 km o più
Cielo coperto ad un'altezza di 2500 ft

METAR: LIQC 082255Z 00000KT 9999 OVC025 12/08 Q1014 RMK OVC QUK / QUL / VIS MAR 20 KM VIS MIN 9999

Ora: 10:55 (09:55 UTC)


TAF: mancante

Osservazioni e previsioni meteorologiche di più di 4000 aeroporti (messaggi METAR e TAF).

Le stazioni disponibili sono rappresentate dai dischi gialli e rossi sulla carta.

Puntare il mouse per vedere il nome della stazione.

Clicca sopra per visualizzare le osservazioni e previsioni meteorologiche.

Per cambiare la mappa : fare clic sui pulsanti verdi con una croce nera per ingrandire, il pulsante verde con un trattino per diminuire, o sulla freccia verde per le mappe adiacenti.


METAR-TAF: